DAL4215 KLAX-KSLC
Flight info
| Callsign | DAL4215 |
|---|---|
| Flight time | 1h 21m |
| Altitude | 39000 |
| Route | ORCKA5 LAS Q70 BLIPP Q842 WINEN MLF PITTT1 |
| Aircraft | A20N/M-SDE2E3FGHIRWXY/LB1 |
Departure
| Time | 2026-04-24 06:23 |
|---|---|
| Airport | Los Angeles International Airport (KLAX) |
Arrival
| Time | 2026-04-24 07:44 |
|---|---|
| Airport | Salt Lake City International Airport (KSLC) |
| Time | Latitude | Longitude | Altitude | Speed | Heading |
|---|---|---|---|---|---|
| 2026-04-24 05:38 | 33.94069 | -118.40013 | 125 ft | 0 kts | 81° |
| 2026-04-24 06:12 | 33.94067 | -118.40027 | 124 ft | 4 kts | 89° |
| 2026-04-24 06:12 | 33.94072 | -118.40057 | 121 ft | 4 kts | 128° |
| 2026-04-24 06:12 | 33.94092 | -118.40075 | 124 ft | 4 kts | 164° |
| 2026-04-24 06:12 | 33.94111 | -118.40080 | 120 ft | 0 kts | 172° |
| 2026-04-24 06:16 | 33.94081 | -118.40076 | 122 ft | 10 kts | 174° |
| 2026-04-24 06:16 | 33.94003 | -118.40067 | 123 ft | 0 kts | 164° |
| 2026-04-24 06:16 | 33.94002 | -118.40066 | 123 ft | 2 kts | 164° |
| 2026-04-24 06:16 | 33.93962 | -118.40055 | 123 ft | 11 kts | 167° |
| 2026-04-24 06:17 | 33.93900 | -118.40020 | 124 ft | 8 kts | 140° |
| 2026-04-24 06:17 | 33.93885 | -118.39992 | 125 ft | 5 kts | 112° |
| 2026-04-24 06:17 | 33.93890 | -118.39912 | 124 ft | 14 kts | 76° |
| 2026-04-24 06:17 | 33.93900 | -118.39774 | 123 ft | 18 kts | 83° |
| 2026-04-24 06:18 | 33.93922 | -118.39609 | 125 ft | 21 kts | 76° |
| 2026-04-24 06:18 | 33.93934 | -118.39448 | 123 ft | 15 kts | 85° |
| 2026-04-24 06:18 | 33.93946 | -118.39328 | 125 ft | 13 kts | 82° |
| 2026-04-24 06:18 | 33.93955 | -118.39242 | 122 ft | 10 kts | 83° |
| 2026-04-24 06:19 | 33.93965 | -118.39133 | 125 ft | 16 kts | 83° |
| 2026-04-24 06:19 | 33.93980 | -118.38979 | 125 ft | 21 kts | 82° |
| 2026-04-24 06:19 | 33.93996 | -118.38785 | 125 ft | 25 kts | 84° |
| 2026-04-24 06:19 | 33.94015 | -118.38636 | 125 ft | 8 kts | 90° |
| 2026-04-24 06:20 | 33.94017 | -118.38593 | 125 ft | 10 kts | 84° |
| 2026-04-24 06:20 | 33.94033 | -118.38474 | 125 ft | 18 kts | 81° |
| 2026-04-24 06:20 | 33.94039 | -118.38404 | 123 ft | 3 kts | 86° |
| 2026-04-24 06:20 | 33.94045 | -118.38338 | 124 ft | 14 kts | 83° |
| 2026-04-24 06:21 | 33.94062 | -118.38185 | 125 ft | 22 kts | 83° |
| 2026-04-24 06:21 | 33.94079 | -118.38054 | 125 ft | 8 kts | 87° |
| 2026-04-24 06:21 | 33.94076 | -118.38034 | 125 ft | 0 kts | 109° |
| 2026-04-24 06:21 | 33.94073 | -118.38029 | 125 ft | 4 kts | 119° |
| 2026-04-24 06:22 | 33.94031 | -118.38005 | 122 ft | 9 kts | 173° |
| 2026-04-24 06:22 | 33.93986 | -118.38044 | 125 ft | 8 kts | 248° |
| 2026-04-24 06:22 | 33.93984 | -118.38050 | 124 ft | 0 kts | 253° |
| 2026-04-24 06:22 | 33.93977 | -118.38091 | 125 ft | 32 kts | 262° |
| 2026-04-24 06:23 | 33.93911 | -118.38756 | 126 ft | 131 kts | 263° |
| 2026-04-24 06:23 | 33.93753 | -118.40143 | 399 ft | 193 kts | 259° |
| 2026-04-24 06:23 | 33.93503 | -118.41872 | 1354 ft | 219 kts | 262° |
| 2026-04-24 06:23 | 33.93314 | -118.43815 | 2275 ft | 249 kts | 264° |
| 2026-04-24 06:24 | 33.92895 | -118.45880 | 2946 ft | 258 kts | 247° |
| 2026-04-24 06:24 | 33.91949 | -118.47729 | 3619 ft | 261 kts | 232° |
| 2026-04-24 06:24 | 33.90793 | -118.49436 | 4295 ft | 264 kts | 231° |
| 2026-04-24 06:24 | 33.89593 | -118.51133 | 4772 ft | 267 kts | 230° |
| 2026-04-24 06:25 | 33.88373 | -118.52828 | 4939 ft | 268 kts | 230° |
| 2026-04-24 06:25 | 33.87149 | -118.54494 | 4982 ft | 269 kts | 224° |
| 2026-04-24 06:25 | 33.85567 | -118.55667 | 4986 ft | 270 kts | 199° |
| 2026-04-24 06:25 | 33.83703 | -118.55859 | 4989 ft | 272 kts | 172° |
| 2026-04-24 06:26 | 33.81849 | -118.55370 | 4987 ft | 273 kts | 167° |
| 2026-04-24 06:26 | 33.80006 | -118.54822 | 4985 ft | 272 kts | 167° |
| 2026-04-24 06:26 | 33.78162 | -118.54283 | 4988 ft | 272 kts | 167° |
| 2026-04-24 06:26 | 33.76317 | -118.53765 | 4984 ft | 273 kts | 168° |
| 2026-04-24 06:27 | 33.74464 | -118.53261 | 4981 ft | 272 kts | 168° |
| 2026-04-24 06:27 | 33.72636 | -118.52771 | 4989 ft | 272 kts | 168° |
| 2026-04-24 06:27 | 33.70831 | -118.52101 | 4992 ft | 273 kts | 152° |
| 2026-04-24 06:27 | 33.69412 | -118.50619 | 4995 ft | 273 kts | 125° |
| 2026-04-24 06:28 | 33.68617 | -118.48549 | 5052 ft | 276 kts | 109° |
| 2026-04-24 06:28 | 33.68004 | -118.46354 | 5642 ft | 278 kts | 108° |
| 2026-04-24 06:28 | 33.67403 | -118.44158 | 7011 ft | 275 kts | 109° |
| 2026-04-24 06:28 | 33.66756 | -118.41950 | 8237 ft | 288 kts | 110° |
| 2026-04-24 06:29 | 33.66058 | -118.39639 | 9429 ft | 299 kts | 111° |
| 2026-04-24 06:29 | 33.65341 | -118.37271 | 10485 ft | 314 kts | 111° |
| 2026-04-24 06:29 | 33.64688 | -118.34649 | 11119 ft | 343 kts | 103° |
| 2026-04-24 06:29 | 33.64377 | -118.31707 | 11749 ft | 367 kts | 91° |
| 2026-04-24 06:30 | 33.64423 | -118.28606 | 12750 ft | 376 kts | 88° |
| 2026-04-24 06:30 | 33.64498 | -118.25428 | 13811 ft | 385 kts | 88° |
| 2026-04-24 06:30 | 33.64557 | -118.22184 | 14765 ft | 392 kts | 86° |
| 2026-04-24 06:30 | 33.65107 | -118.18965 | 15744 ft | 396 kts | 68° |
| 2026-04-24 06:31 | 33.66456 | -118.16077 | 16692 ft | 399 kts | 49° |
| 2026-04-24 06:31 | 33.68449 | -118.13766 | 17624 ft | 400 kts | 34° |
| 2026-04-24 06:31 | 33.70738 | -118.11840 | 18533 ft | 404 kts | 29° |
| 2026-04-24 06:31 | 33.73109 | -118.09987 | 19372 ft | 409 kts | 29° |
| 2026-04-24 06:32 | 33.75494 | -118.08071 | 20196 ft | 415 kts | 30° |
| 2026-04-24 06:32 | 33.77874 | -118.06061 | 21028 ft | 421 kts | 32° |
| 2026-04-24 06:32 | 33.80260 | -118.03968 | 21871 ft | 427 kts | 32° |
| 2026-04-24 06:32 | 33.82665 | -118.01816 | 22676 ft | 433 kts | 33° |
| 2026-04-24 06:33 | 33.85057 | -117.99657 | 23496 ft | 439 kts | 33° |
| 2026-04-24 06:33 | 33.87514 | -117.97436 | 24204 ft | 443 kts | 33° |
| 2026-04-24 06:33 | 33.89986 | -117.95201 | 24948 ft | 446 kts | 33° |
| 2026-04-24 06:33 | 33.92480 | -117.92941 | 25600 ft | 451 kts | 33° |
| 2026-04-24 06:34 | 33.94994 | -117.90645 | 26223 ft | 456 kts | 33° |
| 2026-04-24 06:34 | 33.97534 | -117.88315 | 26852 ft | 461 kts | 33° |
| 2026-04-24 06:34 | 34.00094 | -117.85967 | 27464 ft | 465 kts | 33° |
| 2026-04-24 06:34 | 34.02684 | -117.83591 | 28065 ft | 469 kts | 33° |
| 2026-04-24 06:35 | 34.05292 | -117.81198 | 28625 ft | 474 kts | 33° |
| 2026-04-24 06:35 | 34.07899 | -117.78715 | 29172 ft | 480 kts | 37° |
| 2026-04-24 06:35 | 34.10299 | -117.75853 | 29682 ft | 489 kts | 45° |
| 2026-04-24 06:35 | 34.12475 | -117.72660 | 29967 ft | 494 kts | 48° |
| 2026-04-24 06:36 | 34.14614 | -117.69405 | 30019 ft | 495 kts | 48° |
| 2026-04-24 06:36 | 34.18879 | -117.62960 | 30037 ft | 493 kts | 47° |
| 2026-04-24 06:37 | 34.23194 | -117.56526 | 30012 ft | 491 kts | 47° |
| 2026-04-24 06:37 | 34.27537 | -117.50074 | 30445 ft | 498 kts | 47° |
| 2026-04-24 06:37 | 34.29723 | -117.46817 | 30955 ft | 500 kts | 47° |
| 2026-04-24 06:38 | 34.31922 | -117.43535 | 31425 ft | 504 kts | 47° |
| 2026-04-24 06:38 | 34.34129 | -117.40233 | 31991 ft | 504 kts | 47° |
| 2026-04-24 06:38 | 34.36335 | -117.36928 | 32584 ft | 504 kts | 46° |
| 2026-04-24 06:38 | 34.38539 | -117.33623 | 33138 ft | 505 kts | 46° |
| 2026-04-24 06:39 | 34.40745 | -117.30314 | 33690 ft | 505 kts | 46° |
| 2026-04-24 06:39 | 34.42923 | -117.27044 | 34193 ft | 505 kts | 46° |
| 2026-04-24 06:39 | 34.45128 | -117.23730 | 34628 ft | 506 kts | 46° |
| 2026-04-24 06:39 | 34.47340 | -117.20409 | 35091 ft | 507 kts | 46° |
| 2026-04-24 06:40 | 34.49559 | -117.17072 | 35458 ft | 508 kts | 45° |
| 2026-04-24 06:40 | 34.51777 | -117.13737 | 35934 ft | 508 kts | 46° |
| 2026-04-24 06:40 | 34.53997 | -117.10394 | 36346 ft | 509 kts | 45° |
| 2026-04-24 06:40 | 34.56236 | -117.07061 | 36760 ft | 509 kts | 45° |
| 2026-04-24 06:41 | 34.58499 | -117.03765 | 37180 ft | 509 kts | 44° |
| 2026-04-24 06:41 | 34.60784 | -117.00458 | 37535 ft | 511 kts | 44° |
| 2026-04-24 06:41 | 34.63077 | -116.97136 | 37878 ft | 512 kts | 44° |
| 2026-04-24 06:41 | 34.65335 | -116.93856 | 38287 ft | 512 kts | 44° |
| 2026-04-24 06:42 | 34.67624 | -116.90521 | 38629 ft | 514 kts | 44° |
| 2026-04-24 06:42 | 34.69919 | -116.87168 | 38883 ft | 514 kts | 44° |
| 2026-04-24 06:42 | 34.72198 | -116.83833 | 38973 ft | 511 kts | 44° |
| 2026-04-24 06:43 | 34.76730 | -116.77193 | 38991 ft | 511 kts | 44° |
| 2026-04-24 06:43 | 34.81267 | -116.70534 | 38990 ft | 509 kts | 44° |
| 2026-04-24 06:44 | 34.85805 | -116.63862 | 38984 ft | 511 kts | 44° |
| 2026-04-24 06:44 | 34.90483 | -116.57471 | 38989 ft | 507 kts | 40° |
| 2026-04-24 06:45 | 34.95287 | -116.51161 | 38968 ft | 506 kts | 41° |
| 2026-04-24 06:45 | 35.00050 | -116.44834 | 38943 ft | 505 kts | 41° |
| 2026-04-24 06:46 | 35.04783 | -116.38491 | 38927 ft | 504 kts | 41° |
| 2026-04-24 06:46 | 35.08703 | -116.33220 | 38919 ft | 503 kts | 41° |
| 2026-04-24 06:47 | 35.13403 | -116.26892 | 38913 ft | 502 kts | 41° |
| 2026-04-24 06:47 | 35.18882 | -116.19504 | 38935 ft | 505 kts | 41° |
| 2026-04-24 06:48 | 35.22834 | -116.14161 | 38944 ft | 505 kts | 41° |
| 2026-04-24 06:48 | 35.27534 | -116.07800 | 38951 ft | 503 kts | 42° |
| 2026-04-24 06:49 | 35.32192 | -116.01482 | 38956 ft | 503 kts | 42° |
| 2026-04-24 06:49 | 35.36889 | -115.95098 | 38977 ft | 503 kts | 42° |
| 2026-04-24 06:50 | 35.41571 | -115.88723 | 38992 ft | 502 kts | 42° |
| 2026-04-24 06:50 | 35.46245 | -115.82346 | 38985 ft | 502 kts | 42° |
| 2026-04-24 06:51 | 35.50883 | -115.76007 | 38992 ft | 502 kts | 42° |
| 2026-04-24 06:51 | 35.55538 | -115.69633 | 38994 ft | 501 kts | 42° |
| 2026-04-24 06:52 | 35.60193 | -115.63247 | 38998 ft | 501 kts | 42° |
| 2026-04-24 06:52 | 35.64986 | -115.57061 | 39004 ft | 493 kts | 32° |
| 2026-04-24 06:53 | 35.70352 | -115.51815 | 39000 ft | 492 kts | 32° |
| 2026-04-24 06:53 | 35.75671 | -115.46576 | 39003 ft | 494 kts | 32° |
| 2026-04-24 06:54 | 35.81159 | -115.41554 | 39006 ft | 490 kts | 28° |
| 2026-04-24 06:54 | 35.86715 | -115.36668 | 39017 ft | 491 kts | 29° |
| 2026-04-24 06:55 | 35.92250 | -115.31710 | 39004 ft | 490 kts | 30° |
| 2026-04-24 06:55 | 35.97744 | -115.26728 | 38989 ft | 490 kts | 30° |
| 2026-04-24 06:56 | 36.03194 | -115.21768 | 38962 ft | 490 kts | 30° |
| 2026-04-24 06:56 | 36.08682 | -115.16766 | 38962 ft | 490 kts | 30° |
| 2026-04-24 06:57 | 36.14166 | -115.11761 | 38962 ft | 490 kts | 30° |
| 2026-04-24 06:57 | 36.19650 | -115.06748 | 38911 ft | 490 kts | 30° |
| 2026-04-24 06:58 | 36.25137 | -115.01724 | 38910 ft | 490 kts | 30° |
| 2026-04-24 06:58 | 36.30615 | -114.96697 | 38912 ft | 490 kts | 30° |
| 2026-04-24 06:59 | 36.36095 | -114.91660 | 38899 ft | 490 kts | 30° |
| 2026-04-24 06:59 | 36.41568 | -114.86621 | 38887 ft | 490 kts | 30° |
| 2026-04-24 07:00 | 36.47012 | -114.81599 | 38892 ft | 490 kts | 30° |
| 2026-04-24 07:00 | 36.52483 | -114.76544 | 38868 ft | 489 kts | 30° |
| 2026-04-24 07:01 | 36.57944 | -114.71490 | 38871 ft | 489 kts | 30° |
| 2026-04-24 07:01 | 36.63394 | -114.66436 | 38868 ft | 488 kts | 30° |
| 2026-04-24 07:02 | 36.68835 | -114.61381 | 38854 ft | 488 kts | 30° |
| 2026-04-24 07:02 | 36.74276 | -114.56318 | 38865 ft | 488 kts | 30° |
| 2026-04-24 07:03 | 36.79707 | -114.51254 | 38875 ft | 487 kts | 30° |
| 2026-04-24 07:03 | 36.85100 | -114.46216 | 38877 ft | 486 kts | 30° |
| 2026-04-24 07:04 | 36.90527 | -114.41139 | 38876 ft | 487 kts | 30° |
| 2026-04-24 07:04 | 36.95954 | -114.36046 | 38881 ft | 486 kts | 30° |
| 2026-04-24 07:05 | 37.01371 | -114.30950 | 38894 ft | 486 kts | 30° |
| 2026-04-24 07:05 | 37.06733 | -114.25898 | 38901 ft | 485 kts | 30° |
| 2026-04-24 07:06 | 37.12130 | -114.20806 | 38917 ft | 486 kts | 30° |
| 2026-04-24 07:06 | 37.17538 | -114.15694 | 38920 ft | 487 kts | 31° |
| 2026-04-24 07:07 | 37.22957 | -114.10564 | 38931 ft | 487 kts | 31° |
| 2026-04-24 07:07 | 37.31025 | -114.02904 | 38915 ft | 486 kts | 31° |
| 2026-04-24 07:08 | 37.36415 | -113.97779 | 38921 ft | 486 kts | 31° |
| 2026-04-24 07:08 | 37.41787 | -113.92658 | 38764 ft | 482 kts | 31° |
| 2026-04-24 07:09 | 37.44456 | -113.90108 | 38262 ft | 479 kts | 31° |
| 2026-04-24 07:09 | 37.47106 | -113.87574 | 37408 ft | 477 kts | 31° |
| 2026-04-24 07:09 | 37.49750 | -113.85046 | 36462 ft | 477 kts | 30° |
| 2026-04-24 07:09 | 37.52402 | -113.82510 | 35579 ft | 477 kts | 30° |
| 2026-04-24 07:10 | 37.55036 | -113.79988 | 35190 ft | 476 kts | 30° |
| 2026-04-24 07:10 | 37.57690 | -113.77446 | 34991 ft | 482 kts | 30° |
| 2026-04-24 07:10 | 37.63022 | -113.72331 | 34945 ft | 484 kts | 30° |
| 2026-04-24 07:11 | 37.68372 | -113.67185 | 34944 ft | 484 kts | 30° |
| 2026-04-24 07:11 | 37.73727 | -113.62028 | 34950 ft | 484 kts | 30° |
| 2026-04-24 07:12 | 37.79078 | -113.56868 | 34957 ft | 484 kts | 30° |
| 2026-04-24 07:12 | 37.84432 | -113.51695 | 34967 ft | 484 kts | 31° |
| 2026-04-24 07:13 | 37.89783 | -113.46517 | 34979 ft | 484 kts | 31° |
| 2026-04-24 07:13 | 37.95131 | -113.41329 | 34977 ft | 484 kts | 31° |
| 2026-04-24 07:14 | 38.00446 | -113.36167 | 34973 ft | 484 kts | 31° |
| 2026-04-24 07:14 | 38.05780 | -113.30975 | 34971 ft | 483 kts | 31° |
| 2026-04-24 07:15 | 38.11115 | -113.25772 | 34978 ft | 483 kts | 31° |
| 2026-04-24 07:15 | 38.16452 | -113.20560 | 34983 ft | 483 kts | 31° |
| 2026-04-24 07:16 | 38.21745 | -113.15380 | 34994 ft | 482 kts | 31° |
| 2026-04-24 07:16 | 38.27066 | -113.10161 | 35026 ft | 482 kts | 31° |
| 2026-04-24 07:17 | 38.32383 | -113.04940 | 35018 ft | 482 kts | 31° |
| 2026-04-24 07:17 | 38.37934 | -113.00313 | 35021 ft | 470 kts | 19° |
| 2026-04-24 07:18 | 38.43842 | -112.97048 | 35021 ft | 465 kts | 14° |
| 2026-04-24 07:18 | 38.49829 | -112.93903 | 35024 ft | 465 kts | 14° |
| 2026-04-24 07:19 | 38.55818 | -112.90732 | 35013 ft | 466 kts | 14° |
| 2026-04-24 07:19 | 38.61814 | -112.87537 | 35015 ft | 467 kts | 14° |
| 2026-04-24 07:20 | 38.67809 | -112.84328 | 34983 ft | 467 kts | 14° |
| 2026-04-24 07:20 | 38.73796 | -112.81118 | 34978 ft | 466 kts | 14° |
| 2026-04-24 07:21 | 38.79780 | -112.77905 | 34985 ft | 466 kts | 14° |
| 2026-04-24 07:21 | 38.85729 | -112.74704 | 34999 ft | 466 kts | 14° |
| 2026-04-24 07:22 | 38.91710 | -112.71480 | 34976 ft | 466 kts | 14° |
| 2026-04-24 07:22 | 38.97690 | -112.68249 | 34973 ft | 466 kts | 14° |
| 2026-04-24 07:23 | 39.03657 | -112.65018 | 34976 ft | 465 kts | 14° |
| 2026-04-24 07:23 | 39.09635 | -112.61776 | 34993 ft | 465 kts | 14° |
| 2026-04-24 07:24 | 39.15569 | -112.58555 | 34977 ft | 466 kts | 14° |
| 2026-04-24 07:24 | 39.21541 | -112.55304 | 34976 ft | 466 kts | 15° |
| 2026-04-24 07:25 | 39.27514 | -112.52043 | 34974 ft | 466 kts | 15° |
| 2026-04-24 07:25 | 39.33570 | -112.49396 | 35002 ft | 456 kts | 6° |
| 2026-04-24 07:26 | 39.39705 | -112.47400 | 34832 ft | 451 kts | 6° |
| 2026-04-24 07:26 | 39.42740 | -112.46405 | 34322 ft | 449 kts | 6° |
| 2026-04-24 07:26 | 39.45770 | -112.45405 | 33582 ft | 448 kts | 6° |
| 2026-04-24 07:27 | 39.48804 | -112.44407 | 32590 ft | 450 kts | 7° |
| 2026-04-24 07:27 | 39.51800 | -112.43423 | 31666 ft | 450 kts | 7° |
| 2026-04-24 07:27 | 39.54843 | -112.42421 | 30736 ft | 450 kts | 8° |
| 2026-04-24 07:27 | 39.57870 | -112.41425 | 29973 ft | 446 kts | 9° |
| 2026-04-24 07:28 | 39.60857 | -112.40437 | 29157 ft | 440 kts | 9° |
| 2026-04-24 07:28 | 39.63808 | -112.39455 | 28389 ft | 434 kts | 9° |
| 2026-04-24 07:28 | 39.66715 | -112.38485 | 27611 ft | 429 kts | 10° |
| 2026-04-24 07:28 | 39.69587 | -112.37525 | 26867 ft | 423 kts | 10° |
| 2026-04-24 07:29 | 39.72419 | -112.36578 | 26134 ft | 418 kts | 10° |
| 2026-04-24 07:29 | 39.75214 | -112.35643 | 25424 ft | 412 kts | 10° |
| 2026-04-24 07:29 | 39.77975 | -112.34717 | 24739 ft | 407 kts | 10° |
| 2026-04-24 07:29 | 39.80701 | -112.33800 | 24115 ft | 401 kts | 10° |
| 2026-04-24 07:30 | 39.83391 | -112.32894 | 23434 ft | 396 kts | 10° |
| 2026-04-24 07:30 | 39.86034 | -112.32001 | 22415 ft | 389 kts | 10° |
| 2026-04-24 07:30 | 39.88620 | -112.31130 | 21403 ft | 388 kts | 10° |
| 2026-04-24 07:30 | 39.91216 | -112.30256 | 20678 ft | 383 kts | 10° |
| 2026-04-24 07:31 | 39.93787 | -112.29389 | 19962 ft | 379 kts | 10° |
| 2026-04-24 07:31 | 39.96332 | -112.28531 | 19245 ft | 376 kts | 10° |
| 2026-04-24 07:31 | 39.98855 | -112.27679 | 18531 ft | 373 kts | 10° |
| 2026-04-24 07:31 | 40.01362 | -112.26830 | 17854 ft | 369 kts | 9° |
| 2026-04-24 07:32 | 40.03821 | -112.25917 | 17138 ft | 367 kts | 12° |
| 2026-04-24 07:32 | 40.06191 | -112.24665 | 16382 ft | 365 kts | 22° |
| 2026-04-24 07:32 | 40.08431 | -112.23122 | 15355 ft | 363 kts | 24° |
| 2026-04-24 07:32 | 40.10626 | -112.21559 | 14603 ft | 362 kts | 24° |
| 2026-04-24 07:33 | 40.12832 | -112.19995 | 13977 ft | 359 kts | 24° |
| 2026-04-24 07:33 | 40.15022 | -112.18464 | 13312 ft | 356 kts | 24° |
| 2026-04-24 07:33 | 40.17200 | -112.16959 | 12637 ft | 352 kts | 24° |
| 2026-04-24 07:33 | 40.19356 | -112.15478 | 11974 ft | 349 kts | 24° |
| 2026-04-24 07:34 | 40.21483 | -112.14014 | 11516 ft | 340 kts | 24° |
| 2026-04-24 07:34 | 40.23533 | -112.12607 | 11147 ft | 328 kts | 24° |
| 2026-04-24 07:34 | 40.25588 | -112.11202 | 10171 ft | 339 kts | 24° |
| 2026-04-24 07:34 | 40.27685 | -112.09769 | 9531 ft | 337 kts | 24° |
| 2026-04-24 07:35 | 40.29723 | -112.08370 | 9187 ft | 320 kts | 25° |
| 2026-04-24 07:35 | 40.30996 | -112.07491 | 9076 ft | 304 kts | 25° |
| 2026-04-24 07:35 | 40.32806 | -112.06238 | 9000 ft | 292 kts | 25° |
| 2026-04-24 07:35 | 40.34612 | -112.04992 | 8996 ft | 293 kts | 25° |
| 2026-04-24 07:36 | 40.36999 | -112.03339 | 8995 ft | 292 kts | 25° |
| 2026-04-24 07:36 | 40.38731 | -112.02140 | 8986 ft | 270 kts | 25° |
| 2026-04-24 07:36 | 40.39828 | -112.01379 | 8993 ft | 258 kts | 25° |
| 2026-04-24 07:36 | 40.41351 | -112.00321 | 8984 ft | 243 kts | 25° |
| 2026-04-24 07:37 | 40.42801 | -111.99312 | 8987 ft | 228 kts | 24° |
| 2026-04-24 07:37 | 40.44153 | -111.98348 | 8987 ft | 213 kts | 25° |
| 2026-04-24 07:37 | 40.45444 | -111.97444 | 8991 ft | 212 kts | 24° |
| 2026-04-24 07:37 | 40.46743 | -111.96562 | 8990 ft | 205 kts | 20° |
| 2026-04-24 07:38 | 40.48043 | -111.96136 | 8974 ft | 186 kts | 355° |
| 2026-04-24 07:38 | 40.49337 | -111.96279 | 8963 ft | 186 kts | 348° |
| 2026-04-24 07:38 | 40.50615 | -111.96424 | 8889 ft | 185 kts | 351° |
| 2026-04-24 07:38 | 40.51917 | -111.96549 | 8929 ft | 190 kts | 350° |
| 2026-04-24 07:39 | 40.53225 | -111.96695 | 8975 ft | 186 kts | 350° |
| 2026-04-24 07:39 | 40.54507 | -111.96845 | 8967 ft | 185 kts | 349° |
| 2026-04-24 07:39 | 40.55791 | -111.96996 | 8942 ft | 184 kts | 349° |
| 2026-04-24 07:39 | 40.57058 | -111.97144 | 8739 ft | 183 kts | 350° |
| 2026-04-24 07:40 | 40.58341 | -111.97297 | 8384 ft | 188 kts | 350° |
| 2026-04-24 07:40 | 40.59624 | -111.97448 | 8006 ft | 188 kts | 351° |
| 2026-04-24 07:40 | 40.60924 | -111.97600 | 7601 ft | 186 kts | 351° |
| 2026-04-24 07:40 | 40.62195 | -111.97748 | 7292 ft | 179 kts | 351° |
| 2026-04-24 07:41 | 40.63404 | -111.97891 | 7015 ft | 168 kts | 352° |
| 2026-04-24 07:41 | 40.64522 | -111.98025 | 6778 ft | 156 kts | 354° |
| 2026-04-24 07:41 | 40.65595 | -111.98152 | 6570 ft | 157 kts | 356° |
| 2026-04-24 07:41 | 40.66657 | -111.98278 | 6357 ft | 152 kts | 356° |
| 2026-04-24 07:42 | 40.67708 | -111.98402 | 6163 ft | 153 kts | 357° |
| 2026-04-24 07:42 | 40.68763 | -111.98526 | 5965 ft | 152 kts | 356° |
| 2026-04-24 07:42 | 40.69810 | -111.98649 | 5774 ft | 150 kts | 355° |
| 2026-04-24 07:42 | 40.70847 | -111.98770 | 5581 ft | 150 kts | 354° |
| 2026-04-24 07:43 | 40.71892 | -111.98892 | 5379 ft | 151 kts | 353° |
| 2026-04-24 07:43 | 40.72923 | -111.99013 | 5179 ft | 147 kts | 354° |
| 2026-04-24 07:43 | 40.73944 | -111.99132 | 4981 ft | 147 kts | 353° |
| 2026-04-24 07:43 | 40.74954 | -111.99250 | 4795 ft | 149 kts | 352° |
| 2026-04-24 07:44 | 40.75982 | -111.99369 | 4594 ft | 147 kts | 353° |
| 2026-04-24 07:44 | 40.76988 | -111.99489 | 4390 ft | 142 kts | 354° |
| 2026-04-24 07:44 | 40.77930 | -111.99597 | 4249 ft | 126 kts | 355° |
| 2026-04-24 07:44 | 40.78473 | -111.99694 | 4230 ft | 48 kts | 355° |
| 2026-04-24 07:45 | 40.78606 | -111.99661 | 4233 ft | 9 kts | 339° |
| 2026-04-24 07:45 | 40.78670 | -111.99690 | 4233 ft | 8 kts | 345° |
| 2026-04-24 07:45 | 40.78733 | -111.99684 | 4233 ft | 10 kts | 14° |
| 2026-04-24 07:45 | 40.78768 | -111.99618 | 4232 ft | 10 kts | 107° |
| 2026-04-24 07:46 | 40.78715 | -111.99538 | 4231 ft | 3 kts | 134° |
| 2026-04-24 07:46 | 40.78711 | -111.99533 | 4232 ft | 3 kts | 134° |
| 2026-04-24 07:47 | 40.78704 | -111.99524 | 4232 ft | 0 kts | 134° |
| 2026-04-24 07:47 | 40.78683 | -111.99494 | 4231 ft | 10 kts | 132° |
| 2026-04-24 07:47 | 40.78646 | -111.99426 | 4231 ft | 1 kts | 124° |
| 2026-04-24 07:47 | 40.78641 | -111.99359 | 4231 ft | 9 kts | 82° |
| 2026-04-24 07:48 | 40.78649 | -111.99269 | 4231 ft | 8 kts | 104° |
| 2026-04-24 07:48 | 40.78646 | -111.99262 | 4231 ft | 0 kts | 115° |
| 2026-04-24 07:48 | 40.78640 | -111.99251 | 4231 ft | 3 kts | 127° |
| 2026-04-24 07:49 | 40.78618 | -111.99230 | 4231 ft | 5 kts | 152° |
| 2026-04-24 07:49 | 40.78590 | -111.99220 | 4231 ft | 4 kts | 166° |
| 2026-04-24 07:49 | 40.78572 | -111.99213 | 4231 ft | 2 kts | 162° |
| 2026-04-24 07:49 | 40.78572 | -111.99212 | 4231 ft | 0 kts | 162° |